Time;durP1;ratioP1;P1;durP2;ratioP2;P2;SDS_P1;SDS_P2;PMS_P1;PMS_P2;Temp;Humidity;BMP_temperature;BMP_pressure;BME280_temperature;BME280_humidity;BME280_pressure;Samples;Min_cycle;Max_cycle;Signal;HPM_P1;HPM_P2
2022/08/12 00:44:22;;;;;;;;;15.50;13.75;;;;;27.47;30.15;101325.72;5096621;27;45288;-66
2022/08/12 00:46:57;;;;;;;;;14.50;14.50;;;;;27.56;30.31;101329.84;5085223;27;47567;-66
2022/08/12 00:49:23;;;;;;;;;22.00;19.25;;;;;27.57;30.11;101323.19;5086593;27;45353;-66
2022/08/12 00:52:09;;;;;;;;;15.75;14.25;;;;;27.58;30.68;101327.69;5092796;27;45224;-66
2022/08/12 00:54:47;;;;;;;;;15.00;15.00;;;;;27.49;30.82;101321.59;5089177;27;45457;-66
2022/08/12 00:57:16;;;;;;;;;16.75;16.75;;;;;27.34;31.18;101328.78;5074074;28;47216;-66
2022/08/12 00:59:53;;;;;;;;;16.25;16.00;;;;;27.28;30.90;101315.81;5068565;27;45274;-66
2022/08/12 01:02:27;;;;;;;;;15.00;15.00;;;;;27.29;31.12;101312.78;5092184;27;45460;-66
2022/08/12 01:13:14;;;;;;;;;16.00;15.25;;;;;26.91;31.78;101316.09;5097846;27;45443;-66
2022/08/12 01:15:40;;;;;;;;;17.25;16.25;;;;;26.88;31.62;101310.13;5072579;28;45507;-66
2022/08/12 01:18:05;;;;;;;;;16.00;16.00;;;;;26.90;31.38;101310.75;5083112;27;45679;-66
2022/08/12 01:20:38;;;;;;;;;18.00;17.75;;;;;26.94;31.49;101314.75;5086120;27;45419;-66
2022/08/12 01:23:25;;;;;;;;;16.50;15.75;;;;;26.92;31.58;101317.78;5089762;27;45408;-66
2022/08/12 01:25:52;;;;;;;;;14.50;14.50;;;;;26.88;31.30;101319.34;5090333;27;45768;-66
2022/08/12 01:28:19;;;;;;;;;15.00;15.00;;;;;26.88;31.75;101319.34;5088768;27;45405;-66
2022/08/12 01:30:48;;;;;;;;;13.75;13.75;;;;;26.89;31.63;101318.22;5086281;27;45689;-66
2022/08/12 01:33:17;;;;;;;;;17.50;16.50;;;;;26.86;31.85;101318.72;5087663;27;45341;-66
2022/08/12 01:35:48;;;;;;;;;18.50;15.50;;;;;26.69;31.65;101301.84;5089016;27;45335;-66
2022/08/12 01:38:19;;;;;;;;;17.25;16.25;;;;;26.75;31.96;101313.97;5087547;27;46340;-66
2022/08/12 01:40:46;;;;;;;;;15.25;13.50;;;;;26.62;31.94;101303.06;5089144;27;45462;-66
2022/08/12 01:43:16;;;;;;;;;18.00;17.00;;;;;26.58;32.01;101311.06;5085617;27;45363;-66
2022/08/12 01:46:01;;;;;;;;;15.25;15.25;;;;;26.52;32.44;101306.44;5093442;27;45406;-66
2022/08/12 01:48:44;;;;;;;;;15.50;15.00;;;;;26.53;32.57;101304.50;5082993;28;45388;-66
2022/08/12 01:51:20;;;;;;;;;18.00;16.75;;;;;26.47;32.36;101308.25;5076010;28;46093;-66
2022/08/12 01:54:00;;;;;;;;;15.25;14.50;;;;;26.48;31.99;101309.94;5075066;27;45469;-66
2022/08/12 01:56:30;;;;;;;;;14.25;14.25;;;;;26.49;32.34;101311.66;5093287;27;45349;-66
2022/08/12 02:01:50;;;;;;;;;12.25;12.00;;;;;26.48;32.18;101310.81;5091449;27;45258;-66
2022/08/12 02:13:55;;;;;;;;;13.50;12.50;;;;;26.43;32.53;101295.91;5082508;27;45754;-66
2022/08/12 02:16:49;;;;;;;;;13.25;13.25;;;;;26.47;32.20;101302.69;5089815;27;45547;-66
2022/08/12 02:19:37;;;;;;;;;15.50;14.50;;;;;26.48;32.01;101301.59;5085269;27;45396;-66
2022/08/12 02:22:27;;;;;;;;;13.00;13.00;;;;;26.34;32.58;101299.03;5100379;27;45993;-66
2022/08/12 02:25:01;;;;;;;;;14.50;14.50;;;;;26.27;32.65;101292.72;5080945;27;46244;-66
2022/08/12 02:27:32;;;;;;;;;16.00;15.25;;;;;26.23;32.71;101287.81;5098399;27;45401;-66
2022/08/12 02:29:58;;;;;;;;;19.00;17.50;;;;;26.16;32.61;101295.41;5080540;27;45421;-66
2022/08/12 02:32:24;;;;;;;;;15.00;15.00;;;;;26.21;32.84;101290.84;5074500;28;47503;-66
2022/08/12 02:34:50;;;;;;;;;15.75;13.00;;;;;26.19;32.92;101295.81;5089147;27;45429;-66
2022/08/12 02:37:17;;;;;;;;;15.25;15.25;;;;;26.06;33.05;101273.75;5093677;27;45388;-66
2022/08/12 02:39:51;;;;;;;;;14.50;14.50;;;;;26.00;33.27;101290.56;5096264;27;45699;-66
2022/08/12 02:42:22;;;;;;;;;15.25;15.25;;;;;25.98;33.26;101290.78;5093048;27;46401;-66
2022/08/12 02:44:50;;;;;;;;;15.00;15.00;;;;;25.95;33.35;101285.66;5088749;27;45295;-66
2022/08/12 02:47:19;;;;;;;;;14.25;14.25;;;;;25.84;33.76;101292.91;5093398;27;45551;-66
2022/08/12 02:49:51;;;;;;;;;14.50;14.50;;;;;25.80;33.46;101290.81;5070513;27;45606;-66
2022/08/12 02:52:18;;;;;;;;;15.00;14.50;;;;;25.78;33.91;101291.06;5091858;27;46467;-66
2022/08/12 02:54:48;;;;;;;;;21.25;16.50;;;;;25.75;34.09;101285.97;5091117;27;45415;-66
2022/08/12 02:57:14;;;;;;;;;16.25;14.50;;;;;25.65;33.96;101284.81;5098533;27;45325;-66
2022/08/12 02:59:40;;;;;;;;;13.25;13.25;;;;;25.67;34.15;101279.88;5090280;27;45437;-66
2022/08/12 03:02:11;;;;;;;;;14.50;14.50;;;;;25.69;33.38;101286.06;5091813;27;46928;-66
2022/08/12 03:04:49;;;;;;;;;17.00;14.25;;;;;25.66;33.62;101276.22;5087679;27;45239;-66
2022/08/12 03:07:28;;;;;;;;;13.25;12.75;;;;;25.64;34.16;101284.00;5092771;27;45651;-66
2022/08/12 03:10:23;;;;;;;;;16.50;14.75;;;;;25.64;33.38;101278.44;5091000;27;45380;-66
2022/08/12 03:12:53;;;;;;;;;13.25;13.25;;;;;25.71;33.52;101281.13;5091228;27;45329;-66
2022/08/12 03:15:22;;;;;;;;;15.25;14.00;;;;;25.77;34.00;101282.94;5090787;27;45410;-66
2022/08/12 03:18:12;;;;;;;;;15.50;13.75;;;;;25.76;33.71;101284.88;5083499;27;45346;-66
2022/08/12 03:20:41;;;;;;;;;11.75;10.00;;;;;25.62;34.27;101276.94;5076239;27;45405;-66
2022/08/12 03:23:12;;;;;;;;;15.75;15.00;;;;;25.63;34.42;101285.06;5092037;27;46200;-66
2022/08/12 03:25:42;;;;;;;;;19.50;17.00;;;;;25.56;34.66;101287.06;5090882;27;45408;-66
2022/08/12 03:28:10;;;;;;;;;16.75;15.50;;;;;25.52;34.52;101289.44;5086047;27;45414;-66
2022/08/12 03:30:37;;;;;;;;;14.25;13.50;;;;;25.50;34.77;101288.81;5074522;28;45443;-66
2022/08/12 03:33:05;;;;;;;;;15.25;15.25;;;;;25.49;34.36;101284.38;5089499;27;45563;-66
2022/08/12 03:35:32;;;;;;;;;16.00;14.75;;;;;25.49;34.92;101278.81;5094142;27;45455;-66
2022/08/12 03:38:00;;;;;;;;;13.00;12.50;;;;;25.51;34.92;101287.75;5089843;27;45378;-66
2022/08/12 04:02:42;;;;;;;;;17.50;15.50;;;;;25.67;34.12;101296.56;5090879;27;45173;-66
2022/08/12 04:05:11;;;;;;;;;15.75;15.75;;;;;25.62;34.40;101290.88;5090058;27;45582;-66
2022/08/12 04:07:37;;;;;;;;;18.25;14.75;;;;;25.58;34.97;101282.97;5089201;27;45455;-66
2022/08/12 04:10:04;;;;;;;;;14.75;14.75;;;;;25.54;34.64;101286.44;5091014;27;45457;-67
2022/08/12 04:15:18;;;;;;;;;21.75;19.25;;;;;25.53;34.70;101285.59;5086905;27;45441;-67
2022/08/12 04:17:46;;;;;;;;;17.25;15.25;;;;;25.45;35.16;101279.47;5089802;27;45346;-66
2022/08/12 04:20:18;;;;;;;;;18.75;18.50;;;;;25.45;34.52;101285.03;5087229;27;45168;-68
2022/08/12 04:22:44;;;;;;;;;19.25;19.00;;;;;25.48;34.67;101281.81;5091159;27;45403;-68
2022/08/12 04:25:11;;;;;;;;;17.50;17.50;;;;;25.40;35.08;101280.19;5089364;27;45495;-68
2022/08/12 04:27:37;;;;;;;;;24.25;21.00;;;;;25.38;35.22;101285.13;5091198;27;45390;-68
2022/08/12 04:30:04;;;;;;;;;16.50;16.50;;;;;25.40;36.06;101290.47;5089239;27;45453;-67
2022/08/12 04:32:29;;;;;;;;;22.75;21.50;;;;;25.35;35.66;101287.53;5089113;27;45247;-69
2022/08/12 04:34:55;;;;;;;;;18.00;17.25;;;;;25.34;35.41;101291.41;5089807;27;45430;-68
2022/08/12 04:37:20;;;;;;;;;23.00;22.00;;;;;25.47;35.32;101286.53;5094003;27;45355;-68
2022/08/12 04:39:46;;;;;;;;;18.00;18.00;;;;;25.45;35.81;101283.13;5087870;27;45366;-68
2022/08/12 04:42:12;;;;;;;;;24.25;20.25;;;;;25.52;35.18;101292.22;5095400;27;45223;-68
2022/08/12 04:44:37;;;;;;;;;18.75;18.75;;;;;25.58;34.94;101299.66;5086343;27;45504;-68
2022/08/12 04:47:03;;;;;;;;;19.50;17.75;;;;;25.53;35.36;101284.72;5092705;27;45456;-68
2022/08/12 04:49:32;;;;;;;;;20.75;17.00;;;;;25.55;35.05;101282.56;5085991;27;46784;-68
2022/08/12 04:51:58;;;;;;;;;17.50;16.75;;;;;25.62;35.33;101282.50;5093869;27;45469;-68
2022/08/12 04:54:23;;;;;;;;;21.75;18.50;;;;;25.59;35.40;101281.03;5082273;27;48226;-68
2022/08/12 04:56:52;;;;;;;;;17.75;17.75;;;;;25.56;35.28;101281.50;5095449;27;45340;-68
2022/08/12 04:59:18;;;;;;;;;18.00;17.50;;;;;25.57;35.04;101292.38;5087811;27;45594;-68
2022/08/12 05:01:50;;;;;;;;;24.75;22.00;;;;;25.55;35.24;101288.13;5102245;27;45499;-68
2022/08/12 05:04:17;;;;;;;;;16.50;16.50;;;;;25.56;35.83;101300.97;5085042;27;46304;-68
2022/08/12 05:06:43;;;;;;;;;22.25;20.25;;;;;25.50;35.81;101291.59;5093383;27;45409;-70
2022/08/12 05:09:08;;;;;;;;;17.75;16.00;;;;;25.52;35.89;101299.72;5087490;27;45283;-68
2022/08/12 05:11:33;;;;;;;;;18.25;18.00;;;;;25.61;35.80;101286.38;5076015;28;46443;-68
2022/08/12 05:14:00;;;;;;;;;20.00;16.50;;;;;25.64;35.85;101297.06;5064852;28;46177;-68
2022/08/12 05:16:25;;;;;;;;;21.50;20.00;;;;;25.62;35.66;101291.72;5072798;27;45327;-68
2022/08/12 05:18:51;;;;;;;;;17.50;17.50;;;;;25.61;35.52;101303.06;5065310;28;45499;-69
2022/08/12 05:21:16;;;;;;;;;15.75;14.50;;;;;25.61;35.39;101311.41;5071509;28;45586;-68
2022/08/12 05:23:42;;;;;;;;;17.25;15.50;;;;;25.67;35.20;101302.13;5064908;28;46202;-68
2022/08/12 05:26:08;;;;;;;;;18.75;16.25;;;;;25.71;35.52;101308.94;5074139;28;44796;-68
2022/08/12 05:28:34;;;;;;;;;17.50;15.50;;;;;25.72;35.05;101293.91;5070168;28;45172;-68
2022/08/12 05:31:02;;;;;;;;;15.00;15.00;;;;;25.81;35.04;101309.22;5067131;28;45754;-69
2022/08/12 05:33:36;;;;;;;;;15.75;15.75;;;;;25.87;34.88;101313.84;5065362;28;45422;-68
2022/08/12 05:36:08;;;;;;;;;18.25;17.00;;;;;26.00;34.41;101302.53;5072712;28;45967;-69
2022/08/12 05:41:19;;;;;;;;;23.75;21.00;;;;;27.63;32.29;101307.38;5076202;28;45265;-68
2022/08/12 05:43:46;;;;;;;;;18.50;18.50;;;;;27.67;31.49;101303.88;5062309;28;45535;-68
2022/08/12 05:46:12;;;;;;;;;19.00;19.00;;;;;27.40;32.34;101308.25;5072221;28;45460;-68
2022/08/12 05:48:37;;;;;;;;;17.50;17.50;;;;;27.22;32.32;101312.06;5062262;28;45304;-69
2022/08/12 05:51:02;;;;;;;;;15.50;15.50;;;;;27.17;33.14;101305.53;5073425;28;45297;-68
2022/08/12 05:53:28;;;;;;;;;15.75;15.75;;;;;27.06;33.25;101313.66;5080008;27;45328;-68
2022/08/12 05:55:53;;;;;;;;;18.50;14.75;;;;;27.11;32.95;101310.97;5075761;27;45448;-67
2022/08/12 05:58:20;;;;;;;;;15.00;14.25;;;;;27.16;32.96;101315.84;5075033;28;45307;-68
2022/08/12 06:00:45;;;;;;;;;17.75;14.75;;;;;27.24;32.70;101309.03;5092464;27;45566;-68
2022/08/12 06:03:11;;;;;;;;;16.00;16.00;;;;;27.20;33.14;101310.59;5069218;28;45984;-67
2022/08/12 06:05:37;;;;;;;;;13.50;12.50;;;;;27.27;32.71;101308.53;5076028;28;45400;-67
2022/08/12 06:08:05;;;;;;;;;19.00;18.75;;;;;27.32;32.69;101317.03;5071109;27;45315;-67
2022/08/12 06:10:35;;;;;;;;;17.00;15.25;;;;;27.37;32.54;101305.97;5077895;27;45481;-67
2022/08/12 06:13:03;;;;;;;;;20.00;15.75;;;;;27.42;32.03;101320.03;5091255;27;45968;-67
2022/08/12 06:15:30;;;;;;;;;17.50;15.00;;;;;27.50;31.94;101314.06;5078855;27;45617;-67
2022/08/12 06:18:06;;;;;;;;;17.25;17.25;;;;;27.87;31.49;101306.22;5083979;27;45257;-67
2022/08/12 06:20:32;;;;;;;;;14.25;14.25;;;;;28.26;31.02;101315.66;5090073;27;45454;-67
2022/08/12 06:22:57;;;;;;;;;18.25;18.25;;;;;28.50;30.06;101310.75;5092668;27;45329;-68
2022/08/12 06:25:26;;;;;;;;;15.00;15.00;;;;;28.64;30.13;101317.69;5093100;27;45376;-68
2022/08/12 06:27:51;;;;;;;;;15.25;14.00;;;;;28.80;29.62;101311.28;5097256;27;45318;-68
2022/08/12 06:30:20;;;;;;;;;17.75;15.00;;;;;28.73;30.12;101318.97;5069711;27;45570;-68
2022/08/12 06:32:47;;;;;;;;;18.25;15.75;;;;;28.60;29.91;101313.72;5090423;27;45445;-67
2022/08/12 06:35:15;;;;;;;;;15.50;14.75;;;;;28.54;30.21;101309.16;5091768;27;45465;-68
2022/08/12 06:37:44;;;;;;;;;16.25;15.25;;;;;28.50;30.30;101308.81;5089673;27;45316;-67
2022/08/12 06:40:10;;;;;;;;;15.25;13.50;;;;;28.45;30.56;101311.53;5091293;27;45433;-67
2022/08/12 06:42:53;;;;;;;;;16.00;14.00;;;;;28.53;30.10;101308.31;5089332;27;46236;-67
2022/08/12 06:45:19;;;;;;;;;16.50;14.00;;;;;28.97;29.57;101311.28;5071096;28;45401;-68
2022/08/12 06:47:45;;;;;;;;;15.75;15.75;;;;;28.87;29.41;101320.34;5068058;28;45383;-68
2022/08/12 06:50:17;;;;;;;;;17.25;15.25;;;;;28.66;29.55;101318.31;5092201;27;45422;-69
2022/08/12 06:52:45;;;;;;;;;15.50;15.50;;;;;28.52;29.57;101312.19;5078667;27;48210;-69
2022/08/12 06:55:14;;;;;;;;;15.50;15.50;;;;;28.50;30.04;101327.53;5089906;27;45618;-68
2022/08/12 06:57:55;;;;;;;;;15.25;14.25;;;;;28.65;29.60;101317.44;5081951;27;45275;-69
2022/08/12 07:00:26;;;;;;;;;16.25;15.25;;;;;28.72;29.86;101308.03;5096771;27;45214;-68
2022/08/12 07:02:54;;;;;;;;;14.75;14.75;;;;;28.87;29.43;101317.56;5086597;27;45330;-69
2022/08/12 07:05:23;;;;;;;;;17.00;17.00;;;;;28.81;29.63;101312.13;5092264;27;45447;-69
2022/08/12 07:08:05;;;;;;;;;15.50;15.50;;;;;28.82;29.55;101314.69;5086391;27;45280;-69
2022/08/12 07:10:31;;;;;;;;;11.50;10.50;;;;;29.00;29.36;101322.78;5093567;27;45675;-69
2022/08/12 07:12:59;;;;;;;;;15.50;14.75;;;;;29.19;29.15;101314.97;5087493;27;45305;-69
2022/08/12 07:15:25;;;;;;;;;10.25;10.25;;;;;29.32;29.02;101313.75;5074456;27;45384;-69
2022/08/12 07:17:59;;;;;;;;;15.00;13.00;;;;;29.41;28.80;101310.28;5082862;27;45324;-69
2022/08/12 07:20:28;;;;;;;;;16.75;13.50;;;;;29.51;28.38;101305.94;5089421;27;45397;-69
2022/08/12 07:22:54;;;;;;;;;16.00;13.00;;;;;29.53;28.30;101298.09;5089315;27;45963;-69
2022/08/12 07:25:33;;;;;;;;;12.25;12.25;;;;;29.57;28.32;101307.69;5073871;27;45892;-69
2022/08/12 07:28:02;;;;;;;;;16.50;14.75;;;;;29.64;28.30;101305.53;5083788;27;45377;-69
2022/08/12 07:30:33;;;;;;;;;13.75;12.50;;;;;29.79;27.95;101308.53;5088409;27;45408;-69
2022/08/12 07:33:00;;;;;;;;;10.75;10.00;;;;;29.86;27.88;101300.75;5089277;27;45503;-69
2022/08/12 07:35:28;;;;;;;;;11.00;10.00;;;;;29.79;27.73;101298.16;5088553;27;45497;-68
2022/08/12 07:37:54;;;;;;;;;16.50;14.75;;;;;29.88;27.75;101289.28;5088378;27;45496;-69
2022/08/12 07:40:21;;;;;;;;;15.00;13.50;;;;;30.07;27.20;101294.28;5089486;27;45882;-68
2022/08/12 07:42:46;;;;;;;;;12.00;12.00;;;;;30.30;27.26;101293.13;5086734;27;45457;-69
2022/08/12 07:45:12;;;;;;;;;15.50;13.75;;;;;30.42;26.49;101292.94;5089933;27;45501;-69
2022/08/12 07:47:44;;;;;;;;;14.75;13.00;;;;;30.61;26.38;101287.81;5085644;27;45271;-69
2022/08/12 07:50:11;;;;;;;;;14.75;13.25;;;;;30.77;26.40;101286.78;5077553;27;45466;-69
2022/08/12 07:52:41;;;;;;;;;9.75;9.75;;;;;30.84;25.88;101291.06;5084853;27;45953;-69
2022/08/12 07:55:07;;;;;;;;;11.75;10.50;;;;;30.95;25.44;101281.59;5089705;27;45388;-68
2022/08/12 07:57:34;;;;;;;;;13.00;13.00;;;;;31.00;24.77;101288.34;5094462;27;45218;-69
2022/08/12 08:00:04;;;;;;;;;12.00;12.00;;;;;31.17;24.88;101291.88;5091378;27;45383;-70
2022/08/12 08:02:32;;;;;;;;;13.00;12.75;;;;;31.30;24.38;101294.19;5088817;27;46160;-70
2022/08/12 08:04:59;;;;;;;;;11.75;11.75;;;;;31.47;24.44;101279.94;5085784;27;45241;-70
2022/08/12 08:07:28;;;;;;;;;11.00;11.00;;;;;31.64;23.97;101284.25;5090326;27;45419;-69
2022/08/12 08:09:57;;;;;;;;;13.50;12.25;;;;;31.79;23.45;101291.03;5089760;27;45336;-70
2022/08/12 08:15:09;;;;;;;;;13.33;11.33;;;;;32.12;23.76;101295.34;5089286;27;45314;-70
2022/08/12 08:17:36;;;;;;;;;11.25;10.50;;;;;32.34;22.63;101287.53;5092876;27;45470;-69
2022/08/12 08:20:01;;;;;;;;;10.00;10.00;;;;;32.52;22.71;101291.75;5089901;27;45412;-70
2022/08/12 08:22:27;;;;;;;;;13.75;12.50;;;;;32.72;22.81;101294.63;5088497;27;46104;-70
2022/08/12 08:24:56;;;;;;;;;12.25;12.00;;;;;32.90;22.07;101301.59;5089060;27;45700;-70
2022/08/12 08:27:23;;;;;;;;;12.50;11.50;;;;;33.05;21.99;101296.81;5096805;27;45236;-70
2022/08/12 08:29:48;;;;;;;;;14.00;13.00;;;;;33.30;22.30;101301.56;5093216;27;45402;-69
2022/08/12 08:32:13;;;;;;;;;11.00;9.75;;;;;33.41;21.95;101303.19;5088206;27;45664;-68
2022/08/12 08:34:39;;;;;;;;;9.00;9.00;;;;;33.45;22.54;101301.50;5085502;27;45203;-69
2022/08/12 08:37:05;;;;;;;;;11.50;10.25;;;;;33.75;21.59;101300.56;5088471;27;45167;-68
2022/08/12 08:39:31;;;;;;;;;13.00;11.00;;;;;33.86;21.77;101293.72;5086045;27;45445;-69
2022/08/12 08:44:41;;;;;;;;;12.25;11.00;;;;;34.32;21.06;101291.50;5097886;27;45243;-69
2022/08/12 08:47:09;;;;;;;;;9.25;9.25;;;;;34.35;20.57;101292.88;5093269;27;45490;-69
2022/08/12 08:49:36;;;;;;;;;12.00;12.00;;;;;34.38;20.97;101289.47;5088005;27;45252;-69
2022/08/12 08:52:03;;;;;;;;;13.00;11.25;;;;;34.59;20.90;101302.28;5080674;28;48060;-69
2022/08/12 08:54:32;;;;;;;;;12.00;12.00;;;;;34.78;20.18;101295.94;5087353;27;45353;-70
2022/08/12 08:57:00;;;;;;;;;13.00;11.75;;;;;35.01;19.81;101303.59;5075071;28;45286;-69
2022/08/12 08:59:27;;;;;;;;;10.50;10.50;;;;;35.15;20.40;101301.75;5092150;27;45425;-70
2022/08/12 09:01:53;;;;;;;;;9.75;9.00;;;;;35.35;19.82;101295.91;5093064;27;46293;-69
2022/08/12 09:04:24;;;;;;;;;14.50;12.00;;;;;35.42;19.78;101287.91;5085225;27;45476;-70
2022/08/12 09:06:55;;;;;;;;;8.50;8.50;;;;;35.51;19.69;101291.75;5079049;27;45314;-69
2022/08/12 09:09:21;;;;;;;;;9.50;9.50;;;;;35.74;19.22;101283.56;5087280;27;45408;-69
2022/08/12 09:14:30;;;;;;;;;11.50;10.75;;;;;35.96;17.55;101291.44;5085453;27;45283;-70
2022/08/12 09:16:56;;;;;;;;;11.00;9.33;;;;;36.15;17.55;101284.66;5098932;27;45534;-69
2022/08/12 09:19:21;;;;;;;;;8.75;7.75;;;;;36.31;18.75;101293.78;5086060;27;45413;-70
2022/08/12 09:21:47;;;;;;;;;8.75;7.00;;;;;36.36;18.02;101290.88;5091138;27;50200;-69
2022/08/12 09:24:18;;;;;;;;;10.50;10.00;;;;;36.41;17.63;101279.47;5083871;27;45275;-70
2022/08/12 09:26:45;;;;;;;;;9.50;9.00;;;;;36.65;17.53;101291.53;5093346;27;45449;-70
2022/08/12 09:29:12;;;;;;;;;8.25;8.25;;;;;36.80;17.61;101278.25;5086462;27;45251;-69
2022/08/12 09:31:40;;;;;;;;;8.25;8.25;;;;;36.90;17.22;101278.88;5091003;27;45275;-70
2022/08/12 09:34:07;;;;;;;;;12.75;10.00;;;;;37.14;16.74;101289.25;5083956;27;45374;-70
2022/08/12 09:36:33;;;;;;;;;11.00;11.00;;;;;37.31;17.08;101290.31;5092068;27;45330;-69
2022/08/12 09:39:01;;;;;;;;;8.75;8.00;;;;;37.46;17.28;101280.66;5083662;27;45557;-70
2022/08/12 09:41:26;;;;;;;;;10.50;8.50;;;;;37.58;16.96;101283.81;5091879;27;46411;-70
2022/08/12 09:46:36;;;;;;;;;9.00;8.00;;;;;37.88;16.11;101275.78;5090518;27;45426;-68
2022/08/12 09:49:01;;;;;;;;;10.50;9.75;;;;;38.16;16.27;101269.75;5083216;27;45536;-69
2022/08/12 09:51:32;;;;;;;;;8.25;8.25;;;;;38.46;16.00;101261.63;5092972;27;46037;-70
2022/08/12 09:53:57;;;;;;;;;9.00;9.00;;;;;38.61;16.16;101260.41;5089861;27;45295;-70
2022/08/12 09:56:22;;;;;;;;;8.00;8.00;;;;;38.86;16.24;101262.59;5087944;27;45214;-70
2022/08/12 09:58:49;;;;;;;;;10.75;10.00;;;;;39.03;16.15;101259.84;5082950;27;45569;-70
2022/08/12 10:01:17;;;;;;;;;8.50;8.50;;;;;39.01;15.27;101267.03;5092141;27;45553;-70
2022/08/12 10:03:42;;;;;;;;;9.00;8.00;;;;;38.62;15.77;101259.25;5082377;27;45352;-70
2022/08/12 10:06:09;;;;;;;;;10.25;9.00;;;;;38.49;15.74;101253.34;5092020;27;45487;-71
2022/08/12 10:08:35;;;;;;;;;7.75;7.75;;;;;38.83;15.78;101252.72;5092227;27;45450;-70
2022/08/12 10:13:49;;;;;;;;;8.00;8.00;;;;;39.38;15.32;101245.81;5090971;27;45251;-70
2022/08/12 10:16:27;;;;;;;;;8.25;8.25;;;;;39.78;14.80;101243.72;5090597;27;45401;-70
2022/08/12 10:19:01;;;;;;;;;7.00;6.25;;;;;40.01;14.82;101245.28;5093849;27;45469;-69
2022/08/12 10:21:35;;;;;;;;;10.75;10.00;;;;;40.06;14.22;101228.03;5074399;27;47333;-69
2022/08/12 10:24:05;;;;;;;;;7.75;6.50;;;;;40.13;14.08;101238.91;5095321;27;45408;-69
2022/08/12 10:29:37;;;;;;;;;11.00;11.00;;;;;39.85;13.95;101239.22;5063296;27;45363;-70
2022/08/12 10:32:05;;;;;;;;;7.50;7.25;;;;;39.87;13.77;101236.91;5086102;27;45478;-69
2022/08/12 10:34:30;;;;;;;;;6.50;6.50;;;;;39.49;14.09;101227.25;5084477;27;45256;-69
2022/08/12 10:36:58;;;;;;;;;8.00;6.75;;;;;39.44;13.73;101230.28;5086784;27;45350;-69
2022/08/12 10:39:34;;;;;;;;;5.25;5.25;;;;;39.52;14.22;101230.31;5084544;27;45283;-69
2022/08/12 10:44:45;;;;;;;;;7.00;7.00;;;;;39.22;14.24;101226.34;5102604;27;45398;-69
2022/08/12 10:47:11;;;;;;;;;6.50;5.75;;;;;39.31;14.21;101230.03;5101252;27;45346;-69
2022/08/12 10:49:36;;;;;;;;;10.25;9.00;;;;;39.39;14.58;101213.34;5097740;27;45330;-71
2022/08/12 10:52:03;;;;;;;;;6.50;6.25;;;;;39.46;14.42;101223.06;5097980;27;45323;-69
2022/08/12 10:54:29;;;;;;;;;11.25;8.50;;;;;39.87;13.92;101214.13;5089661;27;45243;-70
2022/08/12 10:56:59;;;;;;;;;7.50;6.50;;;;;40.09;14.43;101224.50;5096509;27;45385;-70
2022/08/12 10:59:28;;;;;;;;;6.75;6.75;;;;;40.12;13.84;101214.44;5092428;27;45266;-70
2022/08/12 11:01:55;;;;;;;;;9.00;8.50;;;;;40.16;13.96;101204.06;5088020;27;45424;-69
2022/08/12 11:04:20;;;;;;;;;7.00;7.00;;;;;39.85;14.54;101196.56;5087398;27;45306;-70
2022/08/12 11:06:52;;;;;;;;;9.75;8.75;;;;;39.75;14.29;101204.53;5091055;27;45507;-70
2022/08/12 11:09:23;;;;;;;;;7.00;7.00;;;;;39.93;14.41;101190.03;5089975;27;45488;-70
2022/08/12 11:11:49;;;;;;;;;7.25;7.25;;;;;40.13;13.75;101182.81;5090708;27;46144;-70
2022/08/12 11:14:16;;;;;;;;;6.75;6.75;;;;;40.48;14.08;101177.91;5073986;27;45512;-70
2022/08/12 11:16:43;;;;;;;;;8.25;8.00;;;;;40.84;14.03;101178.31;5094266;27;45168;-70
2022/08/12 11:19:09;;;;;;;;;6.75;6.50;;;;;40.87;12.97;101173.09;5097014;27;46037;-70
2022/08/12 11:21:34;;;;;;;;;7.00;7.00;;;;;40.92;13.11;101182.28;5091841;27;46924;-70
2022/08/12 11:23:59;;;;;;;;;6.75;6.75;;;;;41.03;12.76;101171.34;5084702;27;45312;-70
2022/08/12 11:26:24;;;;;;;;;6.00;6.00;;;;;41.22;12.72;101164.06;5095921;27;45515;-70
2022/08/12 11:28:50;;;;;;;;;8.00;6.75;;;;;41.12;12.24;101155.91;5099329;27;46500;-70
2022/08/12 11:31:15;;;;;;;;;8.75;8.75;;;;;41.11;12.40;101164.81;5092469;27;45508;-70
2022/08/12 11:33:42;;;;;;;;;7.75;7.50;;;;;41.16;12.87;101168.28;5084991;27;45240;-70
2022/08/12 11:36:08;;;;;;;;;8.75;8.75;;;;;40.69;13.24;101167.50;5090369;27;45405;-70
2022/08/12 11:38:34;;;;;;;;;4.25;4.25;;;;;40.75;13.47;101166.13;5087314;27;45484;-70
2022/08/12 11:41:02;;;;;;;;;7.00;5.75;;;;;41.38;12.91;101172.84;5090983;27;46695;-70
2022/08/12 11:43:28;;;;;;;;;7.50;7.50;;;;;41.44;12.99;101153.50;5085152;27;45419;-70
2022/08/12 11:45:53;;;;;;;;;7.00;7.00;;;;;41.08;12.27;101142.66;5090187;27;45241;-70
2022/08/12 11:48:19;;;;;;;;;7.00;7.00;;;;;41.46;12.66;101139.75;5085622;27;45403;-70
2022/08/12 11:50:44;;;;;;;;;9.00;8.00;;;;;41.57;12.49;101144.72;5093040;27;46291;-70
2022/08/12 11:53:09;;;;;;;;;7.00;7.00;;;;;42.08;12.75;101138.94;5095676;27;45352;-70
2022/08/12 11:55:35;;;;;;;;;7.00;7.00;;;;;41.80;12.53;101144.34;5089368;27;45224;-70
2022/08/12 11:58:00;;;;;;;;;7.00;7.00;;;;;41.77;12.65;101134.50;5096046;27;45247;-70
2022/08/12 12:00:25;;;;;;;;;9.00;7.00;;;;;41.80;12.67;101121.53;5073771;27;46907;-70
2022/08/12 12:02:51;;;;;;;;;8.75;7.50;;;;;41.93;12.26;101137.56;5095838;27;45351;-70
2022/08/12 12:05:16;;;;;;;;;8.75;7.75;;;;;41.95;11.71;101130.31;5091330;27;45436;-70
2022/08/12 12:07:43;;;;;;;;;7.00;7.00;;;;;41.95;12.46;101129.47;5095379;27;45552;-70
2022/08/12 12:10:13;;;;;;;;;7.50;7.50;;;;;42.01;12.94;101124.41;5091219;27;45644;-69
2022/08/12 12:12:39;;;;;;;;;7.25;7.25;;;;;42.14;11.89;101132.66;5073837;28;45899;-70
2022/08/12 12:15:05;;;;;;;;;6.50;6.50;;;;;42.29;12.19;101134.84;5090168;27;45480;-70
2022/08/12 12:17:34;;;;;;;;;6.75;6.75;;;;;42.48;11.25;101134.31;5082970;28;45421;-70
2022/08/12 12:19:59;;;;;;;;;8.75;7.50;;;;;42.12;11.57;101122.75;5080838;27;47140;-70
2022/08/12 12:22:24;;;;;;;;;3.00;3.00;;;;;42.47;11.96;101111.78;5084910;27;45738;-70
2022/08/12 12:24:50;;;;;;;;;6.50;6.50;;;;;42.23;11.56;101107.66;5089320;27;45428;-71
2022/08/12 12:27:19;;;;;;;;;10.50;10.50;;;;;42.65;12.04;101108.38;5092235;27;45424;-70
2022/08/12 12:29:45;;;;;;;;;6.75;6.75;;;;;42.79;11.17;101118.66;5090106;27;45627;-71
2022/08/12 12:32:10;;;;;;;;;3.75;3.75;;;;;42.85;10.72;101112.34;5091016;27;45284;-70
2022/08/12 12:34:35;;;;;;;;;7.25;7.25;;;;;42.35;11.01;101118.34;5074852;27;45275;-70
2022/08/12 12:37:01;;;;;;;;;7.50;7.50;;;;;41.90;11.28;101103.97;5093059;27;45353;-70
2022/08/12 12:39:26;;;;;;;;;6.25;6.25;;;;;42.16;11.25;101115.13;5086047;27;46669;-69
2022/08/12 12:41:51;;;;;;;;;5.50;5.50;;;;;42.01;11.66;101098.72;5091979;27;45344;-70
2022/08/12 12:44:17;;;;;;;;;7.00;7.00;;;;;42.43;11.34;101099.41;5085973;27;45399;-70
2022/08/12 12:46:42;;;;;;;;;6.00;6.00;;;;;42.76;10.92;101102.19;5092948;27;45503;-70
2022/08/12 12:49:07;;;;;;;;;7.75;7.75;;;;;42.90;11.39;101112.09;5084492;27;46510;-70
2022/08/12 12:51:33;;;;;;;;;6.00;6.00;;;;;42.59;11.31;101104.09;5098253;27;45313;-70
2022/08/12 12:53:58;;;;;;;;;7.00;7.00;;;;;42.26;11.10;101089.00;5088255;27;45595;-70
2022/08/12 12:56:23;;;;;;;;;6.50;6.50;;;;;42.44;11.96;101089.66;5092918;27;45416;-70
2022/08/12 12:58:50;;;;;;;;;4.50;4.50;;;;;42.61;11.32;101080.84;5081812;27;47842;-70
2022/08/12 13:01:20;;;;;;;;;5.25;5.25;;;;;42.96;12.06;101090.63;5094358;27;45322;-70
2022/08/12 13:03:47;;;;;;;;;8.25;6.75;;;;;43.05;10.91;101082.75;5090953;27;45271;-70
2022/08/12 13:06:12;;;;;;;;;4.00;4.00;;;;;42.82;11.40;101081.59;5093685;27;45452;-70
2022/08/12 13:08:38;;;;;;;;;8.25;8.25;;;;;42.84;11.29;101082.06;5083974;27;47194;-70
2022/08/12 13:11:06;;;;;;;;;6.75;6.75;;;;;42.87;11.22;101074.81;5089929;27;45414;-70